Tiempo atmosférico en la estación meteorológica de Silleda, Pontevedra (422 m.)



Fecha
DESCASC
Temp. máxima en grados centígrados (hora)
DESCASC
Temp. mínima en grados centígrados (hora)
DESCASC
Temp. media en grados centígrados
DESCASC
Racha de viento máxima en m/sg (hora)
DESCASC
Velocidad máxima media en intervalos de 10 minutos(hora)
DESCASC
Precipitaciones diarias en mm
DESCASC
Precipitaciones de 00:00 a 06:00 en mm
DESCASC
Precipitaciones de 06:00 a 12:00 en mm
DESCASC
Precipitaciones de 12:00 a 18:00 en mm
DESCASC
Precipitaciones de 18:00 a 24:00 en mm
DESCASC
24-09-2020 17.9 (17:00) 10.4 (23:10) 14.1 12.5 (15:40) 5.56 (20:50) 2.2 0.2 0 0.8 1.2
23-09-2020 18.8 (17:00) 14 (00:00) 16.4 7.5 (19:00) 3.89 (15:30) 3.6 3.4 0.2 0 0
22-09-2020 24 (16:50) 10.9 (00:00) 17.4 7.5 (23:59) 3.89 (23:59) 2.4 0 0 0 2.4
21-09-2020 23.4 (16:50) 11.8 (00:00) 17.6 5.83 (17:00) 3.33 (17:00) 0 0 0 0 0
20-09-2020 21.5 (14:50) 15.1 (00:00) 18.3 6.94 (17:00) 2.78 (17:30) 0.4 0 0 0.4 0
19-09-2020 23 (16:50) 13.6 (00:00) 18.3 6.11 (15:40) 3.89 (02:40) 0 0 0 0 0
18-09-2020 22.7 (17:30) 12.8 (00:00) 17.8 6.67 (12:30) 3.61 (12:30) 16.8 3.8 0 3.2 9.8
17-09-2020 29.4 (15:40) 15.3 (00:00) 22.3 8.61 (17:50) 4.72 (06:10) 7.8 0 0 0 7.8
16-09-2020 29.8 (16:00) 14.9 (03:00) 22.3 8.06 (12:40) 4.17 (09:50) 0 0 0 0 0
15-09-2020 25.9 (16:40) 14.2 (00:00) 20 6.67 (16:30) 3.89 (08:40) 0 0 0 0 0
14-09-2020 26.1 (17:10) 15.9 (00:00) 21 7.5 (16:20) 3.61 (05:20) 0.2 0.2 0 0 0
13-09-2020 34.2 (15:50) 20 (00:00) 27.1 10.28 (09:20) 6.94 (09:30) 0 0 0 0 0
12-09-2020 35.8 (17:20) 16 (04:00) 25.9 8.33 (07:50) 5.28 (08:00) 0 0 0 0 0
11-09-2020 32.4 (17:20) 15.2 (00:00) 23.8 8.06 (11:40) 5.56 (09:50) 0 0 0 0 0
10-09-2020 30.9 (14:30) 12.9 (00:00) 21.9 6.67 (07:30) 3.61 (07:30) 0 0 0 0 0
09-09-2020 33.8 (17:50) 14.8 (03:40) 24.3 7.5 (10:10) 4.72 (09:50) 0 0 0 0 0
08-09-2020 31.7 (18:50) 12.9 (00:00) 22.3 10.83 (07:10) 6.39 (07:20) 0 0 0 0 0
07-09-2020 28.4 (18:00) 11.1 (08:00) 19.8 7.22 (14:20) 3.61 (12:30) 0 0 0 0 0
06-09-2020 24.6 (17:30) 12.2 (00:00) 18.4 8.06 (16:20) 3.33 (16:50) 0 0 0 0 0
05-09-2020 25.6 (17:00) 15.8 (00:00) 20.7 7.78 (15:20) 3.33 (14:00) 0 0 0 0 0
04-09-2020 31.5 (16:20) 17.1 (00:00) 24.3 7.5 (09:00) 5.28 (05:50) 0 0 0 0 0
03-09-2020 32.4 (17:10) 14.5 (00:00) 23.5 6.67 (09:10) 4.44 (09:30) 0 0 0 0 0
02-09-2020 27.8 (17:40) 10.7 (00:00) 19.2 5.83 (16:50) 3.06 (17:10) 0 0 0 0 0
01-09-2020 24.9 (17:00) 11 (00:00) 17.9 6.67 (17:30) 3.33 (17:20) 0 0 0 0 0
31-08-2020 26.6 (17:00) 8.8 (00:00) 17.7 8.33 (06:30) 5.56 (06:40) 0 0 0 0 0
30-08-2020 22.9 (16:50) 8.9 (00:00) 15.9 6.11 (12:50) 2.5 (16:20) 0 0 0 0 0
29-08-2020 20.9 (19:20) 10.9 (00:00) 15.9 7.78 (13:40) 3.89 (13:40) 0.6 0.6 0 0 0
28-08-2020 20 (13:00) 11.8 (00:00) 15.9 9.17 (14:20) 4.72 (14:30) 0 0 0 0 0

Gráficas

Temp. máximas Temp. mínimas Temp. medias Precipitaciones Rachas de viento máximas Velocidades máximas media en intervalos de 10 minutos

Datos horarios

Fecha y hora oficial Temperatura (ºC) Velocidad del viento (km/h) Dirección del viento Racha (km/h) Dirección de racha Precipitación (mm) Presión (hPa) Tendencia (hPa) Humedad (%)
2020-09-26 23:00:00 14 5 Noroeste 26 Noroeste 0.2 -- -- 99
2020-09-26 22:00:00 14.7 11 Noroeste 22 Noroeste 0.8 -- -- 98
2020-09-26 21:00:00 14.7 10 Noroeste 23 Noroeste 0 -- -- 98
2020-09-26 20:00:00 14.9 10 Noroeste 21 Noroeste 0 -- -- 97
2020-09-26 19:00:00 15.1 7 Noroeste 19 Oeste 0 -- -- 96
2020-09-26 18:00:00 14.6 7 Noroeste 23 Noroeste 0 -- -- 96
2020-09-26 17:00:00 14.6 9 Oeste 28 Noroeste 0 -- -- 94
2020-09-26 16:00:00 14.5 8 Noroeste 20 Oeste 0 -- -- 93
2020-09-26 15:00:00 13.7 7 Noroeste 22 Noroeste 0.8 -- -- 95
2020-09-26 14:00:00 13.6 8 Noroeste 29 Oeste 0 -- -- 93
2020-09-26 13:00:00 13.6 7 Oeste 20 Oeste 0 -- -- 96
2020-09-26 12:00:00 13.6 9 Noroeste 19 Noroeste 0 -- -- 89
2020-09-26 11:00:00 12.8 6 Noroeste 12 Noroeste 0 -- -- 91
2020-09-26 10:00:00 11.8 2 Oeste 8 Oeste 0 -- -- 94
2020-09-26 09:00:00 10.6 2 Noroeste 10 Oeste 0 -- -- 95
2020-09-26 08:00:00 10.7 3 Noroeste 8 Noroeste 0 -- -- 93
2020-09-26 07:00:00 10.7 0 Calma 4 Noroeste 0 -- -- 94
2020-09-26 06:00:00 10.3 0 Calma 3 Nordeste 0 -- -- 95
2020-09-26 05:00:00 10 0 Calma 4 Nordeste 0 -- -- 95
2020-09-26 04:00:00 9.6 0 Calma 4 Noroeste 0 -- -- 97
2020-09-26 03:00:00 9.8 0 Calma 3 Sudeste 0 -- -- 97
2020-09-26 02:00:00 9.8 0 Calma 8 Noroeste 0.2 -- -- 96
2020-09-26 01:00:00 10.5 3 Noroeste 5 Noroeste 0 -- -- 92
2020-09-26 00:00:00 10.4 0 Calma 2 Noroeste 0 -- -- 90
2020-09-25 23:00:00 10.6 0 Calma 5 Este 0 -- -- 87
2020-09-25 22:00:00 11.2 4 Norte 17 Noroeste 0 -- -- 84
2020-09-25 21:00:00 11.3 5 Noroeste 20 Norte 0 -- -- 82
2020-09-25 20:00:00 12.7 9 Noroeste 21 Noroeste 0 -- -- 76
2020-09-25 19:00:00 14.8 8 Noroeste 23 Noroeste 0 -- -- 68
2020-09-25 18:00:00 16.4 10 Noroeste 27 Noroeste 0 -- -- 62
2020-09-25 17:00:00 17 14 Noroeste 27 Noroeste 0 -- -- 59
2020-09-25 16:00:00 15.8 15 Noroeste 26 Noroeste 0 -- -- 65
2020-09-25 15:00:00 14.1 13 Noroeste 29 Norte 0 -- -- 72
2020-09-25 14:00:00 15.5 11 Noroeste 25 Noroeste 0 -- -- 69
2020-09-25 13:00:00 13.7 9 Noroeste 24 Noroeste 0 -- -- 81
2020-09-25 12:00:00 13.9 11 Noroeste 21 Oeste 0 -- -- 78
2020-09-25 11:00:00 13.5 9 Noroeste 22 Noroeste 0 -- -- 82
2020-09-25 10:00:00 10.8 3 Noroeste 13 Noroeste 0 -- -- 95
2020-09-25 09:00:00 9.2 4 Noroeste 8 Noroeste 0 -- -- 97
2020-09-25 08:00:00 8.5 5 Noroeste 9 Noroeste 0 -- -- 98
2020-09-25 07:00:00 8.1 3 Noroeste 8 Noroeste 0.2 -- -- 98
2020-09-25 06:00:00 8.8 3 Noroeste 12 Noroeste 0.2 -- -- 97
2020-09-25 05:00:00 8.7 2 Noroeste 19 Noroeste 0.2 -- -- 97
2020-09-25 04:00:00 9.2 5 Noroeste 9 Noroeste 0 -- -- 93
2020-09-25 03:00:00 9.3 4 Noroeste 12 Noroeste 0 -- -- 94
2020-09-25 02:00:00 9.2 3 Noroeste 11 Oeste 0 -- -- 96
2020-09-25 01:00:00 9.7 4 Noroeste 10 Noroeste 0 -- -- 95
2020-09-25 00:00:00 10.5 5 Noroeste 18 Noroeste 0.2 -- -- 96
2020-09-24 23:00:00 10.5 7 Noroeste 21 Noroeste 0 -- -- 95
2020-09-24 22:00:00 11 8 Noroeste 22 Norte 0 -- -- 97
2020-09-24 21:00:00 10.9 12 Noroeste 38 Noroeste 1 -- -- 95
2020-09-24 20:00:00 13 8 Noroeste 29 Oeste 0 -- -- 90
2020-09-24 19:00:00 14.6 10 Noroeste 30 Noroeste 0 -- -- 82
2020-09-24 18:00:00 15.7 15 Noroeste 37 Oeste 0 -- -- 75
2020-09-24 17:00:00 17.9 16 Noroeste 40 Noroeste 0 -- -- 69
2020-09-24 16:00:00 16.1 13 Oeste 45 Noroeste 0 -- -- 79
2020-09-24 15:00:00 16.4 17 Noroeste 42 Oeste 0 -- -- 72
2020-09-24 14:00:00 15.6 10 Noroeste 37 Noroeste 0.2 -- -- 83
2020-09-24 13:00:00 13.7 10 Noroeste 33 Oeste 0.6 -- -- 91
2020-09-24 12:00:00 13.6 9 Oeste 35 Oeste 0 -- -- 84
2020-09-24 11:00:00 16.5 9 Sudoeste 21 Noroeste 0 -- -- 72
2020-09-24 10:00:00 14 5 Oeste 13 Sudoeste 0 -- -- 87
2020-09-24 09:00:00 10.7 4 Oeste 13 Oeste 0 -- -- 97
2020-09-24 08:00:00 10.6 3 Oeste 9 Oeste 0 -- -- 98
2020-09-24 07:00:00 10.8 3 Noroeste 8 Sudoeste 0 -- -- 98
2020-09-24 06:00:00 11.6 0 Calma 9 Noroeste 0 -- -- 97
2020-09-24 05:00:00 12.4 3 Noroeste 13 Noroeste 0 -- -- 97
2020-09-24 04:00:00 12.8 0 Calma 3 Noroeste 0.2 -- -- 97
2020-09-24 03:00:00 12.8 0 Calma 5 Oeste 0 -- -- 97
2020-09-24 02:00:00 12.7 2 Oeste 8 Noroeste 0 -- -- 97
2020-09-24 01:00:00 13.2 4 Noroeste 17 Noroeste 0 -- -- 97
2020-09-24 00:00:00 14 4 Oeste 10 Oeste 0 -- -- 90
2020-09-23 23:00:00 14.1 4 Noroeste 13 Oeste 0 -- -- 89
2020-09-23 22:00:00 14.2 4 Sudoeste 10 Sudoeste 0 -- -- 89
2020-09-23 21:00:00 14.5 4 Noroeste 14 Oeste 0 -- -- 88
2020-09-23 20:00:00 15.5 3 Oeste 19 Oeste 0 -- -- 85
2020-09-23 19:00:00 16.8 12 Noroeste 27 Oeste 0 -- -- 76
2020-09-23 18:00:00 17.3 6 Oeste 25 Noroeste 0 -- -- 80
2020-09-23 17:00:00 18.8 7 Oeste 22 Noroeste 0 -- -- 76
2020-09-23 16:00:00 17.4 9 Oeste 26 Noroeste 0 -- -- 81
2020-09-23 15:00:00 17.5 9 Noroeste 24 Noroeste 0 -- -- 84
2020-09-23 14:00:00 18.7 7 Oeste 24 Noroeste 0 -- -- 78
2020-09-23 13:00:00 17 8 Noroeste 17 Noroeste 0 -- -- 88
2020-09-23 12:00:00 16.9 5 Oeste 15 Oeste 0 -- -- 89
2020-09-23 11:00:00 16.7 6 Oeste 16 Noroeste 0 -- -- 88
2020-09-23 10:00:00 15.7 0 Calma 6 Noroeste 0 -- -- 96
2020-09-23 09:00:00 14.8 2 Noroeste 8 Noroeste 0 -- -- 98
2020-09-23 08:00:00 14.7 0 Calma 6 Oeste 0.2 -- -- 98
2020-09-23 07:00:00 14.6 2 Oeste 11 Oeste 0 -- -- 97
2020-09-23 06:00:00 15.2 3 Oeste 10 Noroeste 0 -- -- 97
2020-09-23 05:00:00 15.4 5 Noroeste 10 Noroeste 0 -- -- 97
2020-09-23 04:00:00 15.5 7 Noroeste 14 Oeste 0 -- -- 97
2020-09-23 03:00:00 15.9 4 Noroeste 13 Oeste 0.8 -- -- 97
2020-09-23 02:00:00 15.8 4 Sur 19 Sudoeste 0.6 -- -- 96
2020-09-23 01:00:00 15.7 8 Sudoeste 26 Sudeste 2 -- -- 94
2020-09-23 00:00:00 16.1 14 Sur 27 Sur 0.8 -- -- 91
2020-09-22 23:00:00 15.8 5 Sur 21 Sur 0.4 -- -- 91
2020-09-22 22:00:00 16 4 Sudoeste 12 Este 1.2 -- -- 92
2020-09-22 21:00:00 16.7 2 Oeste 10 Sudoeste 0 -- -- 88
2020-09-22 20:00:00 17.7 4 Sudoeste 14 Sudoeste 0 -- -- 80
2020-09-22 19:00:00 18.7 4 Sudoeste 17 Sudoeste 0 -- -- 76
2020-09-22 18:00:00 20.1 6 Oeste 19 Oeste 0 -- -- 68
2020-09-22 17:00:00 22.9 6 Sudoeste 18 Oeste 0 -- -- 56
2020-09-22 16:00:00 23.8 6 Sudoeste 16 Noroeste 0 -- -- 50
2020-09-22 15:00:00 21.7 5 Noroeste 17 Noroeste 0 -- -- 65
2020-09-22 14:00:00 22.1 5 Oeste 16 Noroeste 0 -- -- 61
2020-09-22 13:00:00 21.6 4 Sur 13 Oeste 0 -- -- 60
2020-09-22 12:00:00 17.4 3 Sur 9 Este 0 -- -- 75
2020-09-22 11:00:00 17.5 3 Sudeste 12 Sudeste 0 -- -- 76
2020-09-22 10:00:00 13.8 6 Este 13 Este 0 -- -- 92
2020-09-22 09:00:00 11.4 6 Este 12 Este 0 -- -- 97
2020-09-22 08:00:00 11 6 Este 10 Este 0 -- -- 97
2020-09-22 07:00:00 11.6 5 Este 13 Sudeste 0 -- -- 97
2020-09-22 06:00:00 11.3 9 Este 13 Este 0 -- -- 97
2020-09-22 05:00:00 11.9 0 Calma 12 Sudeste 0 -- -- 97
2020-09-22 04:00:00 12.3 5 Este 13 Sudeste 0 -- -- 96
2020-09-22 03:00:00 12.5 5 Sudeste 12 Este 0 -- -- 97
2020-09-22 02:00:00 12.9 7 Este 10 Sudeste 0 -- -- 96
2020-09-22 01:00:00 13.3 4 Este 9 Este 0 -- -- 95
2020-09-22 00:00:00 13.6 0 Calma 4 Noroeste 0 -- -- 96
2020-09-21 23:00:00 14 2 Nordeste 6 Sur 0 -- -- 94
2020-09-21 22:00:00 14.6 0 Calma 5 Oeste 0 -- -- 93
2020-09-21 21:00:00 15.3 0 Calma 10 Noroeste 0 -- -- 89
2020-09-21 20:00:00 17.1 5 Noroeste 18 Noroeste 0 -- -- 82
2020-09-21 19:00:00 20 9 Noroeste 17 Noroeste 0 -- -- 73
2020-09-21 18:00:00 18.6 7 Noroeste 20 Noroeste 0 -- -- 78
2020-09-21 17:00:00 22 12 Noroeste 21 Noroeste 0 -- -- 68
2020-09-21 16:00:00 21.8 6 Norte 18 Norte 0 -- -- 61
2020-09-21 15:00:00 20.7 9 Noroeste 18 Noroeste 0 -- -- 63
2020-09-21 14:00:00 22.5 4 Oeste 12 Noroeste 0 -- -- 55
2020-09-21 13:00:00 21 6 Noroeste 12 Noroeste 0 -- -- 61
2020-09-21 12:00:00 19 3 Noroeste 6 Noroeste 0 -- -- 72
2020-09-21 11:00:00 20.4 2 Sudeste 7 Sudeste 0 -- -- 69
2020-09-21 10:00:00 17.1 0 Calma 9 Este 0 -- -- 79
2020-09-21 09:00:00 12.4 7 Este 12 Sudeste 0 -- -- 95
2020-09-21 08:00:00 12 7 Sudeste 13 Sudeste 0 -- -- 96
2020-09-21 07:00:00 12.9 5 Este 10 Este 0 -- -- 94
2020-09-21 06:00:00 13 7 Este 11 Este 0 -- -- 96
2020-09-21 05:00:00 13.3 4 Oeste 10 Noroeste 0 -- -- 95
2020-09-21 04:00:00 14 0 Calma 5 Noroeste 0 -- -- 93
2020-09-21 03:00:00 14.7 0 Calma 6 Oeste 0 -- -- 92
2020-09-21 02:00:00 15.1 0 Calma 6 Noroeste 0 -- -- 91
2020-09-21 01:00:00 15 3 Oeste 13 Noroeste 0 -- -- 92
2020-09-21 00:00:00 15.4 3 Oeste 14 Sudoeste 0 -- -- 90
2020-09-20 23:00:00 15.3 5 Oeste 16 Oeste 0 -- -- 90
2020-09-20 22:00:00 15.4 5 Oeste 16 Oeste 0 -- -- 91
2020-09-20 21:00:00 16.1 3 Oeste 22 Oeste 0 -- -- 90
2020-09-20 20:00:00 16.4 7 Oeste 19 Oeste 0 -- -- 88
2020-09-20 19:00:00 16.9 7 Oeste 16 Oeste 0 -- -- 87
2020-09-20 18:00:00 18.2 8 Oeste 22 Oeste 0 -- -- 83
2020-09-20 17:00:00 19.2 9 Oeste 25 Oeste 0 -- -- 82
2020-09-20 16:00:00 19.9 2 Noroeste 8 Sudeste 0.4 -- -- 83
2020-09-20 15:00:00 20.8 3 Noroeste 10 Norte 0 -- -- 74
2020-09-20 14:00:00 20.1 7 Noroeste 14 Noroeste 0 -- -- 76
2020-09-20 13:00:00 20.6 4 Norte 12 Norte 0 -- -- 76
2020-09-20 12:00:00 19.3 6 Noroeste 13 Noroeste 0 -- -- 79
2020-09-20 11:00:00 18.8 0 Calma 6 Sudeste 0 -- -- 83
2020-09-20 10:00:00 18.6 4 Sudeste 13 Sudeste 0 -- -- 83
2020-09-20 09:00:00 15.9 2 Sur 10 Sudeste 0 -- -- 92
2020-09-20 08:00:00 15.6 3 Sudeste 11 Este 0 -- -- 93
2020-09-20 07:00:00 15.5 4 Sudeste 12 Sudeste 0 -- -- 92
2020-09-20 06:00:00 15.5 4 Sur 13 Sudeste 0 -- -- 92
2020-09-20 05:00:00 15.2 5 Sur 13 Sudeste 0 -- -- 92
2020-09-20 04:00:00 15.4 8 Sudeste 17 Sudeste 0 -- -- 90
2020-09-20 03:00:00 15.6 8 Sudeste 14 Sudeste 0 -- -- 91
2020-09-20 02:00:00 15.8 6 Sudeste 15 Este 0 -- -- 91
2020-09-20 01:00:00 15.9 8 Sudeste 14 Sudeste 0 -- -- 91
2020-09-20 00:00:00 16.3 2 Sudeste 8 Este 0 -- -- 94
2020-09-19 23:00:00 16.1 2 Este 3 Este 0 -- -- 94
2020-09-19 22:00:00 16.5 0 Calma 3 Nordeste 0 -- -- 92
2020-09-19 21:00:00 17.5 0 Calma 8 Noroeste 0 -- -- 86
2020-09-19 20:00:00 18.6 2 Noroeste 11 Noroeste 0 -- -- 83
2020-09-19 19:00:00 19.8 4 Norte 19 Noroeste 0 -- -- 78
2020-09-19 18:00:00 20.3 13 Noroeste 19 Noroeste 0 -- -- 75
2020-09-19 17:00:00 21.6 7 Noroeste 20 Noroeste 0 -- -- 67
2020-09-19 16:00:00 22 6 Oeste 22 Noroeste 0 -- -- 69
2020-09-19 15:00:00 20.5 7 Noroeste 16 Oeste 0 -- -- 71
2020-09-19 14:00:00 20.9 7 Sudoeste 17 Sudoeste 0 -- -- 73
2020-09-19 13:00:00 18.7 7 Oeste 19 Noroeste 0 -- -- 80
2020-09-19 12:00:00 18.8 5 Sudoeste 19 Oeste 0 -- -- 80
2020-09-19 11:00:00 17.1 5 Sudoeste 13 Oeste 0 -- -- 86
2020-09-19 10:00:00 15.8 3 Oeste 11 Oeste 0 -- -- 92
2020-09-19 09:00:00 15.4 3 Oeste 12 Oeste 0 -- -- 92
2020-09-19 08:00:00 15.6 3 Oeste 13 Sudeste 0 -- -- 89
2020-09-19 07:00:00 15.7 6 Sudeste 13 Sur 0 -- -- 88
2020-09-19 06:00:00 15.5 3 Sur 8 Este 0 -- -- 88
2020-09-19 05:00:00 15.1 5 Este 14 Sudeste 0 -- -- 90
2020-09-19 04:00:00 14.8 3 Sudeste 15 Sudeste 0 -- -- 92
2020-09-19 03:00:00 14 6 Sudeste 22 Este 0 -- -- 97
2020-09-19 02:00:00 13.6 3 Sudeste 9 Este 0 -- -- 98
2020-09-19 01:00:00 14.1 2 Sur 13 Sudeste 0 -- -- 97
2020-09-19 00:00:00 14.2 6 Sudeste 13 Sudeste 0.2 -- -- 98
2020-09-18 23:00:00 14.4 6 Sudeste 22 Sur 9.6 -- -- 97
2020-09-18 22:00:00 16.5 2 Sudoeste 6 Sur 0 -- -- 94
2020-09-18 21:00:00 17.3 0 Calma 4 Oeste 0 -- -- 91
2020-09-18 20:00:00 18.8 0 Calma 6 Noroeste 0 -- -- 87
2020-09-18 19:00:00 19.1 4 Noroeste 9 Noroeste 0 -- -- 86
2020-09-18 18:00:00 20.3 4 Noroeste 10 Noroeste 0 -- -- 80
2020-09-18 17:00:00 20.6 3 Noroeste 6 Noroeste 2.6 -- -- 79
2020-09-18 16:00:00 18.7 3 Noroeste 12 Oeste 0.6 -- -- 86
2020-09-18 15:00:00 19.8 6 Noroeste 18 Noroeste 0 -- -- 77
2020-09-18 14:00:00 20.6 7 Noroeste 18 Sudeste 0 -- -- 75
2020-09-18 13:00:00 21.4 9 Sudeste 24 Sudeste 0 -- -- 64
2020-09-18 12:00:00 19.6 13 Sudeste 24 Sudeste 0 -- -- 75
2020-09-18 11:00:00 19.1 8 Sudeste 15 Sudeste 0 -- -- 79
2020-09-18 10:00:00 16.7 2 Sur 15 Este 0 -- -- 89
2020-09-18 09:00:00 13.3 12 Este 17 Este 0 -- -- 96
2020-09-18 08:00:00 12.8 8 Este 16 Este 0 -- -- 96
2020-09-18 07:00:00 13.6 6 Este 19 Sudeste 0 -- -- 93
2020-09-18 06:00:00 13.5 12 Sudeste 22 Sudeste 2.6 -- -- 95
2020-09-18 05:00:00 15.2 2 Oeste 10 Este 0 -- -- 97
2020-09-18 04:00:00 15.3 0 Calma 13 Este 0.2 -- -- 96
2020-09-18 03:00:00 15.6 8 Sudeste 14 Sudeste 1 -- -- 95
2020-09-18 02:00:00 15.6 7 Sudeste 14 Sudeste 0 -- -- 96
2020-09-18 01:00:00 15.3 4 Sur 12 Sudeste 0 -- -- 98
2020-09-18 00:00:00 15.4 7 Sudeste 13 Sudeste 0 -- -- 98
2020-09-17 23:00:00 15.4 5 Sudeste 9 Este 0 -- -- 98
2020-09-17 22:00:00 15.4 2 Oeste 8 Sudeste 0.6 -- -- 98
2020-09-17 21:00:00 15.6 0 Calma 14 Este 3 -- -- 97
2020-09-17 20:00:00 15.9 4 Noroeste 23 Noroeste 4 -- -- 96
2020-09-17 19:00:00 18 6 Noroeste 29 Oeste 0.2 -- -- 82
2020-09-17 18:00:00 19.8 12 Oeste 31 Sudoeste 0 -- -- 78
2020-09-17 17:00:00 25 5 Noroeste 23 Sudeste 0 -- -- 63
2020-09-17 16:00:00 28.7 10 Sudeste 27 Sur 0 -- -- 40
2020-09-17 15:00:00 28.4 9 Sur 27 Sudeste 0 -- -- 42
2020-09-17 14:00:00 25.3 8 Noroeste 17 Noroeste 0 -- -- 63
2020-09-17 13:00:00 23.1 8 Noroeste 14 Noroeste 0 -- -- 67
2020-09-17 12:00:00 22.7 7 Noroeste 15 Noroeste 0 -- -- 66
2020-09-17 11:00:00 21.6 2 Este 7 Nordeste 0 -- -- 66
2020-09-17 10:00:00 19.3 2 Norte 20 Este 0 -- -- 68
2020-09-17 09:00:00 21.2 13 Sudeste 24 Sudeste 0 -- -- 54
2020-09-17 08:00:00 19.4 14 Sudeste 23 Sudeste 0 -- -- 62
2020-09-17 07:00:00 18.7 10 Sudeste 23 Sudeste 0 -- -- 69
2020-09-17 06:00:00 17.8 14 Este 27 Sudeste 0 -- -- 73
2020-09-17 05:00:00 18.1 10 Este 17 Sudeste 0 -- -- 77
2020-09-17 04:00:00 16.7 2 Sudeste 22 Este 0 -- -- 85
2020-09-17 03:00:00 17.3 13 Este 18 Este 0 -- -- 83
2020-09-17 02:00:00 18.7 4 Sudeste 13 Sudeste 0 -- -- 75
2020-09-17 01:00:00 19.3 8 Sudeste 14 Sudeste 0 -- -- 72
2020-09-17 00:00:00 18.8 4 Este 6 Este 0 -- -- 80
2020-09-16 23:00:00 19 0 Calma 3 Este 0 -- -- 81
2020-09-16 22:00:00 19.5 0 Calma 5 Nordeste 0 -- -- 82
2020-09-16 21:00:00 20.9 0 Calma 13 Noroeste 0 -- -- 76
2020-09-16 20:00:00 24 5 Noroeste 15 Noroeste 0 -- -- 65
2020-09-16 19:00:00 26.7 7 Noroeste 17 Norte 0 -- -- 57
2020-09-16 18:00:00 28 9 Noroeste 20 Noroeste 0 -- -- 50
2020-09-16 17:00:00 27.2 9 Noroeste 18 Sur 0 -- -- 54
2020-09-16 16:00:00 29.8 10 Sur 23 Sudeste 0 -- -- 36
2020-09-16 15:00:00 26.8 8 Sudeste 25 Sur 0 -- -- 45
2020-09-16 14:00:00 27.3 11 Sur 24 Sudeste 0 -- -- 45
2020-09-16 13:00:00 24.9 12 Sudeste 29 Sudeste 0 -- -- 52
2020-09-16 12:00:00 25 8 Sudeste 18 Este 0 -- -- 58
2020-09-16 11:00:00 21.1 12 Sudeste 22 Sur 0 -- -- 67
2020-09-16 10:00:00 18.4 14 Sudeste 23 Sudeste 0 -- -- 78
2020-09-16 09:00:00 16.8 9 Sudeste 18 Sudeste 0 -- -- 85
2020-09-16 08:00:00 15.9 10 Sudeste 19 Sur 0 -- -- 88
2020-09-16 07:00:00 16.1 11 Sudeste 21 Sur 0 -- -- 88
2020-09-16 06:00:00 15.8 9 Sudeste 15 Sudeste 0 -- -- 89
2020-09-16 05:00:00 15.7 8 Sudeste 14 Sudeste 0 -- -- 88
2020-09-16 04:00:00 14.9 5 Sudeste 15 Sudeste 0 -- -- 91
2020-09-16 03:00:00 14.9 9 Sudeste 17 Sudeste 0 -- -- 93
2020-09-16 02:00:00 15.5 3 Sudeste 13 Este 0 -- -- 95
2020-09-16 01:00:00 16.1 5 Sudeste 6 Sudeste 0 -- -- 96
2020-09-16 00:00:00 15.6 0 Calma 10 Sudeste 0 -- -- 96
2020-09-15 23:00:00 16.2 6 Sudeste 10 Sudeste 0 -- -- 94
2020-09-15 22:00:00 16.9 0 Calma 3 Norte 0 -- -- 92
2020-09-15 21:00:00 18 0 Calma 10 Nordeste 0 -- -- 88
2020-09-15 20:00:00 21.1 3 Norte 19 Noroeste 0 -- -- 77
2020-09-15 19:00:00 22.6 9 Noroeste 17 Noroeste 0 -- -- 67
2020-09-15 18:00:00 24.4 7 Noroeste 21 Oeste 0 -- -- 61
2020-09-15 17:00:00 25.7 8 Oeste 24 Oeste 0 -- -- 56
2020-09-15 16:00:00 24.1 8 Oeste 23 Oeste 0 -- -- 57
2020-09-15 15:00:00 24.2 9 Oeste 21 Sudoeste 0 -- -- 61
2020-09-15 14:00:00 20.3 6 Sudoeste 22 Noroeste 0 -- -- 76
2020-09-15 13:00:00 22.1 6 Sudoeste 17 Oeste 0 -- -- 66
2020-09-15 12:00:00 22 6 Sudoeste 18 Sudoeste 0 -- -- 65
2020-09-15 11:00:00 21.6 8 Sudeste 17 Sudeste 0 -- -- 66
2020-09-15 10:00:00 16.8 10 Sudeste 19 Sudeste 0 -- -- 82
2020-09-15 09:00:00 15.7 13 Sudeste 20 Sudeste 0 -- -- 84
2020-09-15 08:00:00 15 11 Sudeste 17 Sudeste 0 -- -- 86
2020-09-15 07:00:00 17.6 10 Sur 17 Sudeste 0 -- -- 77
2020-09-15 06:00:00 16.7 10 Sur 18 Sur 0 -- -- 82
2020-09-15 05:00:00 15.8 4 Sur 12 Sudeste 0 -- -- 87
2020-09-15 04:00:00 14.3 8 Sudeste 10 Este 0 -- -- 88
2020-09-15 03:00:00 14.2 2 Norte 15 Este 0 -- -- 91
2020-09-15 02:00:00 15.1 12 Este 17 Este 0 -- -- 87
2020-09-15 01:00:00 16.1 7 Sudeste 11 Este 0 -- -- 88
2020-09-15 00:00:00 16.1 7 Este 12 Sudeste 0 -- -- 90
2020-09-14 23:00:00 16.2 2 Sur 7 Sudeste 0 -- -- 88
2020-09-14 22:00:00 16.7 2 Oeste 7 Noroeste 0 -- -- 87
2020-09-14 21:00:00 18.3 2 Oeste 13 Noroeste 0 -- -- 82
2020-09-14 20:00:00 20.7 9 Noroeste 20 Noroeste 0 -- -- 74
2020-09-14 19:00:00 23 11 Noroeste 23 Oeste 0 -- -- 70
2020-09-14 18:00:00 25.1 9 Oeste 23 Oeste 0 -- -- 61
2020-09-14 17:00:00 25.9 10 Sudoeste 27 Sudoeste 0 -- -- 57
2020-09-14 16:00:00 25.4 8 Oeste 24 Sudoeste 0 -- -- 61
2020-09-14 15:00:00 23.2 8 Sudoeste 23 Oeste 0 -- -- 71
2020-09-14 14:00:00 21.9 7 Oeste 24 Oeste 0 -- -- 76
2020-09-14 13:00:00 21.5 7 Sudoeste 21 Sudoeste 0 -- -- 77
2020-09-14 12:00:00 23.7 7 Sudoeste 14 Sudoeste 0 -- -- 70
2020-09-14 11:00:00 18.9 3 Noroeste 8 Noroeste 0 -- -- 86
2020-09-14 10:00:00 17.8 0 Calma 6 Noroeste 0 -- -- 91
2020-09-14 09:00:00 16.5 0 Calma 5 Sudeste 0 -- -- 92
2020-09-14 08:00:00 16.7 2 Oeste 12 Norte 0 -- -- 89
2020-09-14 07:00:00 18.4 0 Calma 6 Sudoeste 0 -- -- 83
2020-09-14 06:00:00 16.9 2 Sur 22 Este 0.2 -- -- 85
2020-09-14 05:00:00 18.3 8 Este 17 Este 0 -- -- 73
2020-09-14 04:00:00 19.3 5 Este 15 Sudeste 0 -- -- 70
2020-09-14 03:00:00 20.2 5 Este 10 Este 0 -- -- 66
2020-09-14 02:00:00 20.3 5 Noroeste 14 Oeste 0 -- -- 65
2020-09-14 01:00:00 20.5 5 Oeste 14 Oeste 0 -- -- 56
2020-09-14 00:00:00 20 2 Este 9 Este 0 -- -- 69
2020-09-13 23:00:00 21 5 Este 9 Este 0 -- -- 61
2020-09-13 22:00:00 21.5 0 Calma 4 Noroeste 0 -- -- 65
2020-09-13 21:00:00 22.8 2 Nordeste 4 Nordeste 0 -- -- 59
2020-09-13 20:00:00 25 0 Calma 6 Nordeste 0 -- -- 55
2020-09-13 19:00:00 26.8 3 Noroeste 15 Noroeste 0 -- -- 49
2020-09-13 18:00:00 29.1 8 Noroeste 22 Noroeste 0 -- -- 39
2020-09-13 17:00:00 31.6 10 Noroeste 19 Noroeste 0 -- -- 39
2020-09-13 16:00:00 33.1 13 Sudeste 32 Sudeste 0 -- -- 28
2020-09-13 15:00:00 33.4 13 Sur 27 Sudeste 0 -- -- 28
2020-09-13 14:00:00 31.1 17 Sudeste 32 Sudeste 0 -- -- 28
2020-09-13 13:00:00 30.9 21 Sudeste 34 Este 0 -- -- 26
2020-09-13 12:00:00 29.4 19 Sudeste 32 Sudeste 0 -- -- 32
2020-09-13 11:00:00 26.6 20 Sudeste 33 Este 0 -- -- 35
2020-09-13 10:00:00 23.6 17 Sudeste 37 Sudeste 0 -- -- 40
2020-09-13 09:00:00 21.7 20 Sudeste 36 Sudeste 0 -- -- 42
2020-09-13 08:00:00 22.3 23 Sudeste 36 Sudeste 0 -- -- 41
2020-09-13 07:00:00 23.2 21 Sudeste 31 Sudeste 0 -- -- 41
2020-09-13 06:00:00 22.3 20 Sudeste 32 Sudeste 0 -- -- 50
2020-09-13 05:00:00 22.2 17 Sudeste 27 Sudeste 0 -- -- 54
2020-09-13 04:00:00 21.2 15 Sudeste 24 Sudeste 0 -- -- 57
2020-09-13 03:00:00 21.4 12 Sudeste 21 Sudeste 0 -- -- 59
2020-09-13 02:00:00 23.2 12 Sudeste 22 Sudeste 0 -- -- 55
2020-09-13 01:00:00 23.8 13 Sudeste 23 Sudeste 0 -- -- 54
2020-09-13 00:00:00 23.1 8 Sudeste 13 Sudeste 0 -- -- 56
2020-09-12 23:00:00 23.5 7 Sudeste 12 Sudeste 0 -- -- 54
2020-09-12 22:00:00 23.9 6 Sudeste 12 Sudeste 0 -- -- 50
2020-09-12 21:00:00 25.8 4 Sudeste 16 Nordeste 0 -- -- 49
2020-09-12 20:00:00 30.5 2 Norte 13 Nordeste 0 -- -- 43
2020-09-12 19:00:00 35.4 4 Nordeste 16 Nordeste 0 -- -- 31
2020-09-12 18:00:00 35.1 7 Este 14 Nordeste 0 -- -- 26
2020-09-12 17:00:00 34.9 6 Este 17 Este 0 -- -- 25
2020-09-12 16:00:00 33.9 8 Sur 19 Sudeste 0 -- -- 26
2020-09-12 15:00:00 32 12 Sudeste 22 Sudeste 0 -- -- 29
2020-09-12 14:00:00 31.4 13 Sudeste 28 Sudeste 0 -- -- 29
2020-09-12 13:00:00 30.4 17 Sudeste 30 Sudeste 0 -- -- 31
2020-09-12 12:00:00 28.9 11 Sudeste 26 Sudeste 0 -- -- 43
2020-09-12 11:00:00 25.1 15 Sudeste 26 Este 0 -- -- 52
2020-09-12 10:00:00 21 17 Sudeste 25 Sudeste 0 -- -- 63
2020-09-12 09:00:00 18.3 15 Sudeste 28 Sudeste 0 -- -- 69
2020-09-12 08:00:00 19 19 Sudeste 30 Sudeste 0 -- -- 66
2020-09-12 07:00:00 16.5 13 Sudeste 24 Este 0 -- -- 79
2020-09-12 06:00:00 16.3 10 Sudeste 18 Sudeste 0 -- -- 85
2020-09-12 05:00:00 16.9 9 Sudeste 16 Sudeste 0 -- -- 85
2020-09-12 04:00:00 16 0 Calma 5 Noroeste 0 -- -- 87
2020-09-12 03:00:00 17.5 3 Sudeste 16 Este 0 -- -- 79
2020-09-12 02:00:00 20 13 Este 18 Este 0 -- -- 71
2020-09-12 01:00:00 20.8 11 Sudeste 18 Este 0 -- -- 67
2020-09-12 00:00:00 21.6 9 Este 14 Este 0 -- -- 61
2020-09-11 23:00:00 22 6 Sudeste 9 Sudeste 0 -- -- 71
2020-09-11 22:00:00 22.9 0 Calma 4 Nordeste 0 -- -- 71
2020-09-11 21:00:00 24.7 2 Noroeste 8 Noroeste 0 -- -- 56
2020-09-11 20:00:00 28.4 8 Noroeste 15 Noroeste 0 -- -- 42
2020-09-11 19:00:00 30.4 7 Noroeste 18 Noroeste 0 -- -- 39
2020-09-11 18:00:00 31.9 7 Noroeste 18 Noroeste 0 -- -- 40
2020-09-11 17:00:00 31.3 9 Noroeste 18 Noroeste 0 -- -- 39
2020-09-11 16:00:00 31 11 Noroeste 21 Noroeste 0 -- -- 38
2020-09-11 15:00:00 31.5 10 Noroeste 17 Noroeste 0 -- -- 41
2020-09-11 14:00:00 30.7 9 Sudeste 17 Este 0 -- -- 35
2020-09-11 13:00:00 29.5 10 Sudeste 23 Sudeste 0 -- -- 38
2020-09-11 12:00:00 27.2 14 Sudeste 29 Sudeste 0 -- -- 41
2020-09-11 11:00:00 24.9 17 Sudeste 28 Sudeste 0 -- -- 47
2020-09-11 10:00:00 22.2 18 Sudeste 28 Sudeste 0 -- -- 55
2020-09-11 09:00:00 18.8 17 Sudeste 29 Sudeste 0 -- -- 67
2020-09-11 08:00:00 19.3 16 Sudeste 23 Sudeste 0 -- -- 61
2020-09-11 07:00:00 17.4 13 Sudeste 21 Sudeste 0 -- -- 62
2020-09-11 06:00:00 15.4 3 Sudeste 25 Este 0 -- -- 70
2020-09-11 05:00:00 17.4 18 Este 26 Este 0 -- -- 66
2020-09-11 04:00:00 17.3 13 Sudeste 23 Este 0 -- -- 73
2020-09-11 03:00:00 17.8 15 Sudeste 25 Sudeste 0 -- -- 73
2020-09-11 02:00:00 17.4 14 Este 22 Este 0 -- -- 72
2020-09-11 01:00:00 19.6 10 Sudeste 15 Este 0 -- -- 66
2020-09-11 00:00:00 20.1 6 Sudeste 15 Sudeste 0 -- -- 64
2020-09-10 23:00:00 20.5 8 Sudeste 13 Sudeste 0 -- -- 62
2020-09-10 22:00:00 20.8 3 Este 5 Nordeste 0 -- -- 71
2020-09-10 21:00:00 23.3 0 Calma 12 Nordeste 0 -- -- 62
2020-09-10 20:00:00 26.5 4 Norte 16 Noroeste 0 -- -- 53
2020-09-10 19:00:00 29.6 9 Noroeste 18 Noroeste 0 -- -- 42
2020-09-10 18:00:00 30.7 8 Noroeste 21 Noroeste 0 -- -- 41
2020-09-10 17:00:00 28.9 10 Noroeste 19 Noroeste 0 -- -- 43
2020-09-10 16:00:00 29.8 9 Noroeste 21 Noroeste 0 -- -- 43
2020-09-10 15:00:00 29.1 10 Noroeste 17 Noroeste 0 -- -- 44
2020-09-10 14:00:00 29.5 5 Sudeste 10 Sudeste 0 -- -- 40
2020-09-10 13:00:00 29.8 4 Sudeste 16 Sudeste 0 -- -- 37
2020-09-10 12:00:00 26.9 10 Sudeste 19 Sudeste 0 -- -- 43
2020-09-10 11:00:00 23.7 10 Sudeste 18 Sudeste 0 -- -- 57
2020-09-10 10:00:00 19.3 4 Sudeste 17 Sudeste 0 -- -- 73
2020-09-10 09:00:00 13.1 2 Norte 12 Este 0 -- -- 93
2020-09-10 08:00:00 14.5 5 Sudeste 24 Sudeste 0 -- -- 85
2020-09-10 07:00:00 14.6 8 Sudeste 20 Sudeste 0 -- -- 85
2020-09-10 06:00:00 15.3 10 Sudeste 18 Este 0 -- -- 85
2020-09-10 05:00:00 14.9 7 Sudeste 13 Sudeste 0 -- -- 91
2020-09-10 04:00:00 14.6 4 Sur 15 Sudeste 0 -- -- 91
2020-09-10 03:00:00 14.7 8 Sudeste 18 Este 0 -- -- 92
2020-09-10 02:00:00 15.7 8 Sudeste 17 Sudeste 0 -- -- 90
2020-09-10 01:00:00 16.5 6 Sudeste 15 Sudeste 0 -- -- 86
2020-09-10 00:00:00 18.2 8 Sudeste 14 Sudeste 0 -- -- 78
2020-09-09 23:00:00 19.2 4 Sudeste 10 Sudeste 0 -- -- 72
2020-09-09 22:00:00 20.6 0 Calma 5 Nordeste 0 -- -- 69
2020-09-09 21:00:00 23.4 2 Norte 10 Nordeste 0 -- -- 58
2020-09-09 20:00:00 28 6 Noroeste 13 Noroeste 0 -- -- 48
2020-09-09 19:00:00 32.5 3 Nordeste 14 Noroeste 0 -- -- 31
2020-09-09 18:00:00 32.7 6 Nordeste 14 Nordeste 0 -- -- 29
2020-09-09 17:00:00 32.2 5 Nordeste 17 Nordeste 0 -- -- 28
2020-09-09 16:00:00 30.9 5 Norte 14 Noroeste 0 -- -- 33
2020-09-09 15:00:00 30 4 Norte 14 Sudeste 0 -- -- 33
2020-09-09 14:00:00 29.6 6 Sur 16 Sudeste 0 -- -- 28
2020-09-09 13:00:00 28.5 10 Sudeste 20 Sudeste 0 -- -- 32
2020-09-09 12:00:00 26.6 11 Sudeste 19 Este 0 -- -- 40
2020-09-09 11:00:00 23.5 12 Sudeste 27 Sudeste 0 -- -- 48
2020-09-09 10:00:00 20.9 16 Sudeste 24 Sudeste 0 -- -- 48
2020-09-09 09:00:00 17.4 14 Sudeste 26 Sudeste 0 -- -- 60
2020-09-09 08:00:00 16.5 13 Sudeste 25 Este 0 -- -- 64
2020-09-09 07:00:00 17.1 12 Sudeste 19 Sudeste 0 -- -- 62
2020-09-09 06:00:00 17.1 11 Sudeste 21 Sudeste 0 -- -- 65
2020-09-09 05:00:00 16.2 11 Sudeste 22 Sudeste 0 -- -- 70
2020-09-09 04:00:00 15.4 10 Sudeste 19 Este 0 -- -- 82
2020-09-09 03:00:00 16 10 Sudeste 21 Este 0 -- -- 80
2020-09-09 02:00:00 15.9 8 Sudeste 20 Este 0 -- -- 79
2020-09-09 01:00:00 16.8 8 Sudeste 23 Sudeste 0 -- -- 78
2020-09-09 00:00:00 18 9 Sudeste 19 Sudeste 0 -- -- 74
2020-09-08 23:00:00 18.7 4 Sudeste 7 Sudeste 0 -- -- 74
2020-09-08 22:00:00 19.6 0 Calma 6 Este 0 -- -- 69
2020-09-08 21:00:00 22 0 Calma 10 Nordeste 0 -- -- 63
2020-09-08 20:00:00 29.7 3 Norte 12 Nordeste 0 -- -- 40
2020-09-08 19:00:00 31.6 3 Noroeste 15 Este 0 -- -- 32
2020-09-08 18:00:00 30.3 5 Norte 16 Noroeste 0 -- -- 32
2020-09-08 17:00:00 30.3 4 Noroeste 15 Noroeste 0 -- -- 34
2020-09-08 16:00:00 29.8 3 Este 14 Sur 0 -- -- 25
2020-09-08 15:00:00 29 3 Sur 15 Sudeste 0 -- -- 30
2020-09-08 14:00:00 26.5 10 Sur 22 Sudeste 0 -- -- 30
2020-09-08 13:00:00 25 11 Sur 27 Sudeste 0 -- -- 33
2020-09-08 12:00:00 22.9 13 Sudeste 33 Sudeste 0 -- -- 36
2020-09-08 11:00:00 20.5 14 Sudeste 28 Sudeste 0 -- -- 41
2020-09-08 10:00:00 18.1 12 Sudeste 36 Sudeste 0 -- -- 46
2020-09-08 09:00:00 13.6 15 Sudeste 32 Sudeste 0 -- -- 59
2020-09-08 08:00:00 14.7 18 Sudeste 39 Sudeste 0 -- -- 54
2020-09-08 07:00:00 15.5 21 Sudeste 38 Sudeste 0 -- -- 55
2020-09-08 06:00:00 15.4 21 Sudeste 36 Sudeste 0 -- -- 61
2020-09-08 05:00:00 13.6 19 Este 35 Sudeste 0 -- -- 84
2020-09-08 04:00:00 13.6 12 Sudeste 21 Sudeste 0 -- -- 89
2020-09-08 03:00:00 13.1 0 Calma 10 Sudeste 0 -- -- 91
2020-09-08 02:00:00 14 3 Oeste 15 Este 0 -- -- 87
2020-09-08 01:00:00 14.5 9 Sudeste 21 Sudeste 0 -- -- 86
2020-09-08 00:00:00 14.9 9 Sudeste 16 Sudeste 0 -- -- 85
2020-09-07 23:00:00 15.8 3 Nordeste 10 Sur 0 -- -- 81
2020-09-07 22:00:00 16.7 2 Sudeste 7 Este 0 -- -- 78
2020-09-07 21:00:00 18.5 4 Sudeste 17 Este 0 -- -- 72
2020-09-07 20:00:00 22.8 6 Este 19 Nordeste 0 -- -- 57
2020-09-07 19:00:00 25.9 8 Nordeste 20 Este 0 -- -- 49
2020-09-07 18:00:00 28.4 7 Nordeste 21 Nordeste 0 -- -- 43
2020-09-07 17:00:00 27.4 8 Este 22 Este 0 -- -- 39
2020-09-07 16:00:00 25.9 9 Este 23 Este 0 -- -- 43
2020-09-07 15:00:00 24.8 10 Este 26 Este 0 -- -- 49
2020-09-07 14:00:00 23.3 13 Este 26 Sudeste 0 -- -- 52
2020-09-07 13:00:00 22.1 10 Este 25 Este 0 -- -- 57
2020-09-07 12:00:00 19.8 11 Este 25 Este 0 -- -- 62
2020-09-07 11:00:00 18 10 Este 22 Este 0 -- -- 68
2020-09-07 10:00:00 15.5 9 Sudeste 16 Sudeste 0 -- -- 76
2020-09-07 09:00:00 11.5 0 Calma 16 Sudeste 0 -- -- 92
2020-09-07 08:00:00 11.1 3 Sudeste 13 Nordeste 0 -- -- 92
2020-09-07 07:00:00 11.6 4 Nordeste 22 Este 0 -- -- 90
2020-09-07 06:00:00 12.3 12 Sudeste 24 Este 0 -- -- 87
2020-09-07 05:00:00 11.7 3 Este 15 Este 0 -- -- 90
2020-09-07 04:00:00 12.1 5 Sudeste 17 Sudeste 0 -- -- 88
2020-09-07 03:00:00 11.7 3 Este 9 Este 0 -- -- 92
2020-09-07 02:00:00 11.7 3 Nordeste 8 Noroeste 0 -- -- 91
2020-09-07 01:00:00 13 4 Este 12 Sudeste 0 -- -- 86
2020-09-07 00:00:00 12.2 3 Nordeste 7 Nordeste 0 -- -- 90
2020-09-06 23:00:00 12.9 0 Calma 5 Norte 0 -- -- 88
2020-09-06 22:00:00 14.3 0 Calma 25 Este 0 -- -- 81
2020-09-06 21:00:00 16.4 6 Nordeste 21 Este 0 -- -- 73
2020-09-06 20:00:00 20.9 8 Este 23 Este 0 -- -- 58
2020-09-06 19:00:00 23.3 9 Este 22 Este 0 -- -- 51
2020-09-06 18:00:00 24.1 8 Nordeste 27 Este 0 -- -- 52
2020-09-06 17:00:00 23.8 10 Este 29 Este 0 -- -- 53
2020-09-06 16:00:00 24.1 9 Nordeste 28 Nordeste 0 -- -- 53
2020-09-06 15:00:00 23.5 7 Nordeste 23 Nordeste 0 -- -- 55
2020-09-06 14:00:00 22.5 9 Nordeste 24 Este 0 -- -- 56
2020-09-06 13:00:00 22.4 9 Nordeste 22 Nordeste 0 -- -- 58
2020-09-06 12:00:00 19 8 Nordeste 22 Este 0 -- -- 67
2020-09-06 11:00:00 18.6 9 Este 19 Nordeste 0 -- -- 70
2020-09-06 10:00:00 16.5 5 Este 19 Sudeste 0 -- -- 78
2020-09-06 09:00:00 15 8 Este 22 Sudeste 0 -- -- 84
2020-09-06 08:00:00 14.8 5 Este 15 Este 0 -- -- 86
2020-09-06 07:00:00 15 3 Este 15 Este 0 -- -- 85
2020-09-06 06:00:00 15.1 8 Este 22 Este 0 -- -- 84
2020-09-06 05:00:00 15.4 5 Este 16 Nordeste 0 -- -- 85
2020-09-06 04:00:00 15.8 4 Este 17 Sudeste 0 -- -- 84
2020-09-06 03:00:00 15.9 8 Este 20 Nordeste 0 -- -- 83
2020-09-06 02:00:00 16 5 Este 21 Nordeste 0 -- -- 83
2020-09-06 01:00:00 16.3 5 Este 19 Este 0 -- -- 83
2020-09-06 00:00:00 16.3 6 Este 28 Este 0 -- -- 83
2020-09-05 23:00:00 16.4 9 Este 22 Este 0 -- -- 83
2020-09-05 22:00:00 16.9 6 Este 22 Este 0 -- -- 82
2020-09-05 21:00:00 17 6 Este 24 Nordeste 0 -- -- 82
2020-09-05 20:00:00 18.7 6 Este 21 Este 0 -- -- 76
2020-09-05 19:00:00 24.1 6 Nordeste 21 Nordeste 0 -- -- 60
2020-09-05 18:00:00 25 8 Nordeste 25 Nordeste 0 -- -- 60
2020-09-05 17:00:00 25.6 8 Nordeste 22 Nordeste 0 -- -- 56
2020-09-05 16:00:00 24.2 10 Este 28 Nordeste 0 -- -- 63
2020-09-05 15:00:00 23.4 9 Nordeste 24 Sudeste 0 -- -- 63
2020-09-05 14:00:00 23.1 12 Este 26 Este 0 -- -- 66
2020-09-05 13:00:00 21.9 6 Nordeste 23 Nordeste 0 -- -- 70
2020-09-05 12:00:00 19.6 6 Nordeste 18 Nordeste 0 -- -- 77
2020-09-05 11:00:00 18.5 5 Este 13 Este 0 -- -- 82
2020-09-05 10:00:00 17.8 4 Este 11 Este 0 -- -- 86
2020-09-05 09:00:00 17.4 3 Nordeste 11 Este 0 -- -- 88
2020-09-05 08:00:00 16.8 3 Este 9 Este 0 -- -- 92
2020-09-05 07:00:00 16.1 0 Calma 5 Noroeste 0 -- -- 95
2020-09-05 06:00:00 16.7 0 Calma 8 Nordeste 0 -- -- 92
2020-09-05 05:00:00 16.7 4 Nordeste 10 Norte 0 -- -- 92
2020-09-05 04:00:00 16.4 0 Calma 8 Este 0 -- -- 93
2020-09-05 03:00:00 16.7 2 Este 4 Nordeste 0 -- -- 95
2020-09-05 02:00:00 16 4 Sudeste 5 Sudeste 0 -- -- 95
2020-09-05 01:00:00 16.9 0 Calma 6 Nordeste 0 -- -- 92
2020-09-05 00:00:00 17.3 0 Calma 9 Nordeste 0 -- -- 91
2020-09-04 23:00:00 17.3 0 Calma 9 Noroeste 0 -- -- 93
2020-09-04 22:00:00 18 4 Noroeste 12 Noroeste 0 -- -- 88
2020-09-04 21:00:00 20.8 6 Noroeste 12 Noroeste 0 -- -- 58
2020-09-04 20:00:00 29.9 0 Calma 18 Noroeste 0 -- -- 35
2020-09-04 19:00:00 27.2 10 Noroeste 26 Noroeste 0 -- -- 41
2020-09-04 18:00:00 28.3 12 Noroeste 24 Noroeste 0 -- -- 45
2020-09-04 17:00:00 30.2 11 Noroeste 23 Noroeste 0 -- -- 44
2020-09-04 16:00:00 30.6 9 Noroeste 23 Noroeste 0 -- -- 45
2020-09-04 15:00:00 29.1 5 Norte 19 Noroeste 0 -- -- 51
2020-09-04 14:00:00 26.9 10 Noroeste 17 Noroeste 0 -- -- 56
2020-09-04 13:00:00 26.7 6 Noroeste 15 Noroeste 0 -- -- 56
2020-09-04 12:00:00 26.8 5 Noroeste 11 Noroeste 0 -- -- 53
2020-09-04 11:00:00 25.6 5 Noroeste 21 Este 0 -- -- 58
2020-09-04 10:00:00 23.2 13 Sudeste 27 Este 0 -- -- 57
2020-09-04 09:00:00 19.2 18 Este 27 Sudeste 0 -- -- 66
2020-09-04 08:00:00 19.1 15 Sudeste 25 Sudeste 0 -- -- 62
2020-09-04 07:00:00 19.6 15 Sudeste 24 Sudeste 0 -- -- 59
2020-09-04 06:00:00 18.6 17 Sudeste 25 Sudeste 0 -- -- 61
2020-09-04 05:00:00 19.9 17 Este 24 Sudeste 0 -- -- 57
2020-09-04 04:00:00 18.8 16 Sudeste 24 Sudeste 0 -- -- 63
2020-09-04 03:00:00 20.8 11 Sudeste 15 Sudeste 0 -- -- 60
2020-09-04 02:00:00 20.9 9 Sudeste 18 Este 0 -- -- 60
2020-09-04 01:00:00 20.8 10 Sudeste 21 Sudeste 0 -- -- 58
2020-09-04 00:00:00 19.4 14 Este 17 Este 0 -- -- 65
2020-09-03 23:00:00 20.9 4 Este 7 Nordeste 0 -- -- 61
2020-09-03 22:00:00 22.3 0 Calma 4 Nordeste 0 -- -- 59
2020-09-03 21:00:00 24.3 2 Nordeste 10 Noroeste 0 -- -- 56
2020-09-03 20:00:00 29.2 6 Noroeste 13 Noroeste 0 -- -- 43
2020-09-03 19:00:00 30.5 9 Noroeste 18 Noroeste 0 -- -- 37
2020-09-03 18:00:00 31.4 10 Noroeste 19 Noroeste 0 -- -- 39
2020-09-03 17:00:00 31.5 7 Norte 17 Noroeste 0 -- -- 40
2020-09-03 16:00:00 30.2 8 Norte 17 Noroeste 0 -- -- 42
2020-09-03 15:00:00 29.9 5 Norte 14 Noroeste 0 -- -- 45
2020-09-03 14:00:00 28.3 9 Noroeste 15 Noroeste 0 -- -- 46
2020-09-03 13:00:00 28.5 7 Noroeste 15 Sudeste 0 -- -- 52
2020-09-03 12:00:00 28 6 Sudeste 17 Sudeste 0 -- -- 47
2020-09-03 11:00:00 24.8 10 Sudeste 19 Sudeste 0 -- -- 56
2020-09-03 10:00:00 21.6 10 Sudeste 24 Sudeste 0 -- -- 65
2020-09-03 09:00:00 17.4 13 Sudeste 22 Sudeste 0 -- -- 78
2020-09-03 08:00:00 16.6 9 Sudeste 18 Sudeste 0 -- -- 81
2020-09-03 07:00:00 16.6 9 Sudeste 24 Sudeste 0 -- -- 80
2020-09-03 06:00:00 15.2 13 Este 19 Sudeste 0 -- -- 84
2020-09-03 05:00:00 15 14 Este 21 Este 0 -- -- 86
2020-09-03 04:00:00 15.4 7 Sudeste 20 Este 0 -- -- 85
2020-09-03 03:00:00 15.3 13 Sudeste 20 Sudeste 0 -- -- 90
2020-09-03 02:00:00 15.1 6 Este 13 Este 0 -- -- 94
2020-09-03 01:00:00 16 9 Sudeste 12 Sudeste 0 -- -- 94
2020-09-03 00:00:00 15.7 3 Este 5 Este 0 -- -- 92
2020-09-02 23:00:00 16.3 0 Calma 2 Este 0 -- -- 91
2020-09-02 22:00:00 17 0 Calma 6 Noroeste 0 -- -- 88
2020-09-02 21:00:00 19.4 5 Noroeste 14 Noroeste 0 -- -- 80
2020-09-02 20:00:00 23.8 7 Noroeste 17 Noroeste 0 -- -- 65
2020-09-02 19:00:00 26.3 8 Noroeste 20 Noroeste 0 -- -- 58
2020-09-02 18:00:00 27.5 8 Noroeste 18 Noroeste 0 -- -- 51
2020-09-02 17:00:00 27.5 8 Noroeste 21 Noroeste 0 -- -- 50
2020-09-02 16:00:00 26.1 9 Noroeste 17 Noroeste 0 -- -- 54
2020-09-02 15:00:00 25 6 Norte 14 Noroeste 0 -- -- 54
2020-09-02 14:00:00 24.8 4 Nordeste 13 Sudeste 0 -- -- 55
2020-09-02 13:00:00 23.8 5 Sur 12 Sur 0 -- -- 57
2020-09-02 12:00:00 22 3 Sudeste 12 Este 0 -- -- 62
2020-09-02 11:00:00 19.1 4 Sudeste 15 Sudeste 0 -- -- 69
2020-09-02 10:00:00 16 8 Sudeste 19 Sur 0 -- -- 79
2020-09-02 09:00:00 12.5 4 Este 9 Sur 0 -- -- 93
2020-09-02 08:00:00 12.1 4 Sudeste 17 Sur 0 -- -- 93
2020-09-02 07:00:00 11.3 5 Sudeste 12 Sudeste 0 -- -- 96
2020-09-02 06:00:00 11 2 Este 5 Este 0 -- -- 94
2020-09-02 05:00:00 12 3 Este 12 Sudeste 0 -- -- 92
2020-09-02 04:00:00 12.1 5 Sudeste 11 Este 0 -- -- 92
2020-09-02 03:00:00 12.3 3 Este 8 Este 0 -- -- 92
2020-09-02 02:00:00 12.6 2 Norte 19 Este 0 -- -- 89
2020-09-02 01:00:00 12.9 4 Este 17 Este 0 -- -- 87
2020-09-02 00:00:00 14 4 Este 13 Sudeste 0 -- -- 79
2020-09-01 23:00:00 14.5 3 Este 12 Este 0 -- -- 81
2020-09-01 22:00:00 16.4 3 Este 15 Este 0 -- -- 73
2020-09-01 21:00:00 17.9 3 Noroeste 13 Noroeste 0 -- -- 81
2020-09-01 20:00:00 21.5 9 Noroeste 23 Noroeste 0 -- -- 68
2020-09-01 19:00:00 22.3 8 Noroeste 24 Noroeste 0 -- -- 65
2020-09-01 18:00:00 24.7 8 Noroeste 24 Noroeste 0 -- -- 58
2020-09-01 17:00:00 24.9 6 Noroeste 21 Noroeste 0 -- -- 56
2020-09-01 16:00:00 24.5 6 Norte 17 Noroeste 0 -- -- 47
2020-09-01 15:00:00 23.5 7 Noroeste 17 Noroeste 0 -- -- 52
2020-09-01 14:00:00 22.3 6 Noroeste 18 Noroeste 0 -- -- 57
2020-09-01 13:00:00 21.4 6 Noroeste 18 Noroeste 0 -- -- 60
2020-09-01 12:00:00 20.2 5 Noroeste 11 Noroeste 0 -- -- 64
2020-09-01 11:00:00 18.9 3 Noroeste 9 Sur 0 -- -- 68
2020-09-01 10:00:00 15.3 0 Calma 4 Oeste 0 -- -- 79
2020-09-01 09:00:00 12.6 0 Calma 4 Sudeste 0 -- -- 87
2020-09-01 08:00:00 11.5 0 Calma 3 Nordeste 0 -- -- 90
2020-09-01 07:00:00 11.5 2 Nordeste 4 Sudeste 0 -- -- 89
2020-09-01 06:00:00 11.7 0 Calma 7 Sudeste 0 -- -- 89
2020-09-01 05:00:00 11.2 3 Sudeste 5 Sudeste 0 -- -- 90
2020-09-01 04:00:00 12.1 0 Calma 8 Sudeste 0 -- -- 87
2020-09-01 03:00:00 12.5 0 Calma 7 Este 0 -- -- 86
2020-09-01 02:00:00 13.5 5 Este 11 Sudeste 0 -- -- 79
2020-09-01 01:00:00 13.4 0 Calma 4 Este 0 -- -- 83
2020-09-01 00:00:00 13.3 2 Noroeste 10 Noroeste 0 -- -- 80
2020-08-31 23:00:00 15.1 4 Este 8 Este 0 -- -- 71
2020-08-31 22:00:00 15.3 4 Nordeste 8 Noroeste 0 -- -- 66
2020-08-31 21:00:00 16.7 2 Norte 11 Noroeste 0 -- -- 64
2020-08-31 20:00:00 19 4 Noroeste 10 Noroeste 0 -- -- 62
2020-08-31 19:00:00 22.8 8 Noroeste 20 Oeste 0 -- -- 40
2020-08-31 18:00:00 23.5 6 Sudoeste 23 Oeste 0 -- -- 41
2020-08-31 17:00:00 26.6 6 Oeste 22 Sudoeste 0 -- -- 37
2020-08-31 16:00:00 22.8 8 Sudoeste 24 Oeste 0 -- -- 42
2020-08-31 15:00:00 24.5 8 Sudoeste 21 Noroeste 0 -- -- 41
2020-08-31 14:00:00 23.1 11 Noroeste 22 Oeste 0 -- -- 44
2020-08-31 13:00:00 22.8 9 Sudoeste 18 Sudoeste 0 -- -- 41
2020-08-31 12:00:00 21.1 8 Sudeste 27 Sudeste 0 -- -- 49
2020-08-31 11:00:00 17.8 15 Sudeste 26 Sudeste 0 -- -- 56
2020-08-31 10:00:00 15.4 16 Sudeste 28 Sudeste 0 -- -- 62
2020-08-31 09:00:00 12.2 18 Sudeste 27 Sudeste 0 -- -- 72
2020-08-31 08:00:00 11.9 15 Sudeste 25 Sudeste 0 -- -- 75
2020-08-31 07:00:00 11.5 19 Sudeste 30 Sudeste 0 -- -- 78
2020-08-31 06:00:00 10.2 13 Sudeste 24 Sudeste 0 -- -- 85
2020-08-31 05:00:00 9.6 9 Sudeste 20 Este 0 -- -- 89
2020-08-31 04:00:00 9.6 5 Sudeste 17 Este 0 -- -- 89
2020-08-31 03:00:00 9.7 2 Sur 13 Sudeste 0 -- -- 89
2020-08-31 02:00:00 10.4 3 Sudeste 11 Sudeste 0 -- -- 86
2020-08-31 01:00:00 11 4 Sudeste 8 Sudeste 0 -- -- 84
2020-08-31 00:00:00 10.8 2 Este 5 Nordeste 0 -- -- 85
2020-08-30 23:00:00 12.3 0 Calma 14 Sudeste 0 -- -- 76
2020-08-30 22:00:00 13.5 6 Este 14 Sudeste 0 -- -- 72
2020-08-30 21:00:00 15.3 3 Este 15 Este 0 -- -- 67
2020-08-30 20:00:00 20.2 3 Norte 21 Nordeste 0 -- -- 52
2020-08-30 19:00:00 22.9 7 Nordeste 21 Nordeste 0 -- -- 45
2020-08-30 18:00:00 21.9 8 Norte 19 Nordeste 0 -- -- 48
2020-08-30 17:00:00 21.6 9 Nordeste 21 Nordeste 0 -- -- 47
2020-08-30 16:00:00 21.3 6 Nordeste 18 Nordeste 0 -- -- 54
2020-08-30 15:00:00 20.3 6 Nordeste 20 Nordeste 0 -- -- 56
2020-08-30 14:00:00 20.7 7 Nordeste 21 Este 0 -- -- 53
2020-08-30 13:00:00 18.9 6 Nordeste 22 Nordeste 0 -- -- 52
2020-08-30 12:00:00 18.8 6 Norte 17 Este 0 -- -- 58
2020-08-30 11:00:00 17.5 4 Sudeste 9 Este 0 -- -- 63
2020-08-30 10:00:00 15.2 4 Este 6 Este 0 -- -- 69
2020-08-30 09:00:00 9.3 0 Calma 6 Este 0 -- -- 92
2020-08-30 08:00:00 9.2 3 Este 6 Nordeste 0 -- -- 93
2020-08-30 07:00:00 9.7 0 Calma 3 Este 0 -- -- 94
2020-08-30 06:00:00 9.2 2 Nordeste 4 Este 0 -- -- 94
2020-08-30 05:00:00 9.6 0 Calma 3 Nordeste 0 -- -- 94
2020-08-30 04:00:00 10.1 0 Calma 5 Sudeste 0 -- -- 94
2020-08-30 03:00:00 9.5 0 Calma 3 Noroeste 0 -- -- 95
2020-08-30 02:00:00 10.1 0 Calma 3 Nordeste 0 -- -- 92
2020-08-30 01:00:00 10.9 0 Calma 2 Nordeste 0 -- -- 92
2020-08-30 00:00:00 10.9 0 Calma 8 Nordeste 0 -- -- 89
2020-08-29 23:00:00 11.6 0 Calma 4 Nordeste 0 -- -- 86
2020-08-29 22:00:00 12.5 2 Norte 15 Norte 0 -- -- 80
2020-08-29 21:00:00 14.5 3 Norte 21 Este 0 -- -- 68
2020-08-29 20:00:00 18.5 6 Norte 24 Noroeste 0 -- -- 55
2020-08-29 19:00:00 20.8 7 Norte 28 Norte 0 -- -- 57
2020-08-29 18:00:00 20 5 Nordeste 22 Noroeste 0 -- -- 58
2020-08-29 17:00:00 17.3 6 Noroeste 21 Noroeste 0 -- -- 72
2020-08-29 16:00:00 19 5 Norte 28 Noroeste 0 -- -- 68
2020-08-29 15:00:00 20.5 7 Norte 24 Noroeste 0 -- -- 58
2020-08-29 14:00:00 16.7 6 Noroeste 28 Noroeste 0 -- -- 76
2020-08-29 13:00:00 18.1 8 Noroeste 25 Nordeste 0 -- -- 68
2020-08-29 12:00:00 17.4 4 Norte 15 Noroeste 0 -- -- 80
2020-08-29 11:00:00 14.2 5 Noroeste 16 Noroeste 0 -- -- 91
2020-08-29 10:00:00 12.9 6 Noroeste 15 Noroeste 0 -- -- 97
2020-08-29 09:00:00 12.2 6 Noroeste 13 Noroeste 0 -- -- 99
2020-08-29 08:00:00 11.8 3 Noroeste 9 Noroeste 0 -- -- 99
2020-08-29 07:00:00 11.7 4 Noroeste 8 Oeste 0 -- -- 99
2020-08-29 06:00:00 11.4 0 Calma 8 Norte 0.2 -- -- 98
2020-08-29 05:00:00 12.1 4 Noroeste 13 Noroeste 0.2 -- -- 98
2020-08-29 04:00:00 12.3 3 Noroeste 5 Noroeste 0 -- -- 97
2020-08-29 03:00:00 12.2 0 Calma 5 Norte 0 -- -- 97
2020-08-29 02:00:00 11.9 3 Noroeste 6 Noroeste 0 -- -- 96
2020-08-29 01:00:00 12.3 4 Noroeste 11 Norte 0.2 -- -- 95
2020-08-29 00:00:00 12.5 3 Noroeste 6 Noroeste 0 -- -- 89
2020-08-28 23:00:00 11.9 4 Noroeste 10 Noroeste 0 -- -- 89
2020-08-28 22:00:00 12.9 0 Calma 12 Noroeste 0 -- -- 83
2020-08-28 21:00:00 14.3 4 Noroeste 17 Norte 0 -- -- 80
2020-08-28 20:00:00 15.7 10 Noroeste 24 Noroeste 0 -- -- 73
2020-08-28 19:00:00 17.4 13 Noroeste 24 Noroeste 0 -- -- 65
2020-08-28 18:00:00 18 10 Noroeste 25 Noroeste 0 -- -- 67
2020-08-28 17:00:00 18.8 9 Noroeste 26 Noroeste 0 -- -- 62
2020-08-28 16:00:00 17.5 12 Noroeste 27 Noroeste 0 -- -- 69
2020-08-28 15:00:00 19.3 13 Noroeste 33 Noroeste 0 -- -- 60
2020-08-28 14:00:00 18.4 16 Noroeste 29 Noroeste 0 -- -- 63
2020-08-28 13:00:00 20 12 Noroeste 21 Noroeste 0 -- -- 62
2020-08-28 12:00:00 18.7 6 Noroeste 19 Noroeste 0 -- -- 67
2020-08-28 11:00:00 16 7 Noroeste 16 Noroeste 0 -- -- 85
2020-08-28 10:00:00 14.9 3 Noroeste 10 Noroeste 0 -- -- 91
2020-08-28 09:00:00 13.3 0 Calma 3 Noroeste 0 -- -- 97
2020-08-28 08:00:00 12.5 0 Calma 3 Noroeste 0 -- -- 98
2020-08-28 07:00:00 12.8 0 Calma 3 Noroeste 0 -- -- 97
2020-08-28 06:00:00 13 0 Calma 9 Norte 0 -- -- 97
2020-08-28 05:00:00 14.1 7 Noroeste 16 Noroeste 0 -- -- 95
2020-08-28 04:00:00 15.3 9 Noroeste 19 Noroeste 0 -- -- 94
2020-08-28 03:00:00 16 5 Noroeste 11 Noroeste 0 -- -- 96
2020-08-28 02:00:00 16.3 6 Noroeste 21 Noroeste 0 -- -- 96
2020-08-28 01:00:00 17.7 5 Noroeste 10 Noroeste 0 -- -- 97
2020-08-28 00:00:00 18.3 3 Noroeste 10 Noroeste 0 -- -- 96